RJTT METAR and TAF | Updated Today

RJTT METAR

Tokyo Haneda International Airport

Observation time: 20 min. ago

RJTT 010730Z 07013KT 9999 FEW060 25/20 Q1015 NOSIG RMK 1CU060 A2999

Need help? Read our tutorial on how to read METARs or read the parsed version below.

Tokyo Haneda International Airport (RJTT) METAR

  • Weather conditions on Sat, 01 Oct 2022 07:30:00 +0000 (20 min. ago):
  • Present conditions: Dry
  • Clouds: A few at 1829 meters
  • Visibility: Greater than 10 km
  • Wind: 70 degrees at 13 knots
  • Temperature: 25 celsius
  • Dew point: 20 celsius
  • Pressure: 1015 millibars
  • Remarks: 1CU060 A2999


Useful to know...

RJTT TAF

Tokyo Haneda International Airport

TAF RJTT 010505Z 0106/0212 09010KT 9999 FEW030 BECMG 0111/0113 02006KT BECMG 0203/0206 10008KT
Observation time: 2:45 hr. ago
Need help? Read our tutorial on how to read TAFs or read the parsed version below.

Parsed version of TAF for Tokyo Haneda International Airport (RJTT)

  • From 01 October at 06:00 UTC, to day 02 of the month at 12:00 UTC
  • Clouds: A few at 914 meters
  • Visibility: Greater than 10 km
  • Wind: 90 degrees at 10
  • Expected to arise soon, from 01 October at 11:00 UTC, to day 01 of the month at 13:00 UTC
  • Wind: 20 degrees at 6
  • Expected to arise soon, from 02 October at 03:00 UTC, to day 02 of the month at 06:00 UTC
  • Wind: 100 degrees at 8